sensor_id;sensor_type;location;lat;lon;timestamp;pressure;altitude;pressure_sealevel;temperature;humidity
80726;BME280;70113;59.928;10.878;2023-06-24T00:02:06;99418.53;;;17.28;61.71
80726;BME280;70113;59.928;10.878;2023-06-24T00:04:32;99428.09;;;17.33;61.23
80726;BME280;70113;59.928;10.878;2023-06-24T00:06:59;99426.38;;;17.31;60.98
80726;BME280;70113;59.928;10.878;2023-06-24T00:09:26;99424.50;;;16.84;61.78
80726;BME280;70113;59.928;10.878;2023-06-24T00:11:54;99430.72;;;17.01;61.98
80726;BME280;70113;59.928;10.878;2023-06-24T00:14:22;99436.31;;;16.63;62.91
80726;BME280;70113;59.928;10.878;2023-06-24T00:16:50;99432.31;;;16.72;63.50
80726;BME280;70113;59.928;10.878;2023-06-24T00:19:20;99438.78;;;16.83;63.38
80726;BME280;70113;59.928;10.878;2023-06-24T00:21:47;99437.94;;;16.66;63.98
80726;BME280;70113;59.928;10.878;2023-06-24T00:24:13;99405.03;;;16.32;63.90
80726;BME280;70113;59.928;10.878;2023-06-24T00:26:39;99449.91;;;16.76;63.03
80726;BME280;70113;59.928;10.878;2023-06-24T00:29:05;99442.13;;;17.04;61.79
80726;BME280;70113;59.928;10.878;2023-06-24T00:31:30;99439.56;;;17.35;61.03
80726;BME280;70113;59.928;10.878;2023-06-24T00:33:56;99439.22;;;17.41;60.65
80726;BME280;70113;59.928;10.878;2023-06-24T00:36:22;99440.25;;;17.22;61.72
80726;BME280;70113;59.928;10.878;2023-06-24T00:38:47;99448.16;;;17.24;61.33
80726;BME280;70113;59.928;10.878;2023-06-24T00:41:16;99438.41;;;17.54;60.08
80726;BME280;70113;59.928;10.878;2023-06-24T00:43:43;99452.66;;;17.55;60.48
80726;BME280;70113;59.928;10.878;2023-06-24T00:46:08;99448.19;;;17.56;60.64
80726;BME280;70113;59.928;10.878;2023-06-24T00:48:34;99458.59;;;17.76;59.93
80726;BME280;70113;59.928;10.878;2023-06-24T00:51:00;99449.69;;;17.75;58.93
80726;BME280;70113;59.928;10.878;2023-06-24T00:53:26;99454.97;;;17.77;59.14
80726;BME280;70113;59.928;10.878;2023-06-24T00:55:53;99468.63;;;17.88;59.38
80726;BME280;70113;59.928;10.878;2023-06-24T00:58:21;99467.03;;;17.84;58.73
80726;BME280;70113;59.928;10.878;2023-06-24T01:00:49;99473.66;;;18.09;57.80
80726;BME280;70113;59.928;10.878;2023-06-24T01:03:24;99466.75;;;18.05;58.35
80726;BME280;70113;59.928;10.878;2023-06-24T01:05:50;99460.84;;;17.99;58.16
80726;BME280;70113;59.928;10.878;2023-06-24T01:08:17;99458.47;;;18.09;57.64
80726;BME280;70113;59.928;10.878;2023-06-24T01:10:45;99466.25;;;17.98;57.30
80726;BME280;70113;59.928;10.878;2023-06-24T01:13:11;99460.38;;;18.07;56.90
80726;BME280;70113;59.928;10.878;2023-06-24T01:15:37;99463.41;;;18.01;57.25
80726;BME280;70113;59.928;10.878;2023-06-24T01:21:07;99459.69;;;18.04;56.98
80726;BME280;70113;59.928;10.878;2023-06-24T01:34:29;99473.94;;;17.72;57.86
80726;BME280;70113;59.928;10.878;2023-06-24T01:37:12;99466.53;;;17.77;57.39
80726;BME280;70113;59.928;10.878;2023-06-24T01:39:47;99470.59;;;17.85;56.84
80726;BME280;70113;59.928;10.878;2023-06-24T01:42:16;99467.53;;;17.75;57.29
80726;BME280;70113;59.928;10.878;2023-06-24T01:44:44;99470.69;;;17.67;57.71
80726;BME280;70113;59.928;10.878;2023-06-24T01:47:11;99468.88;;;17.84;57.52
80726;BME280;70113;59.928;10.878;2023-06-24T01:49:39;99457.63;;;17.77;56.84
80726;BME280;70113;59.928;10.878;2023-06-24T01:52:08;99473.19;;;17.86;56.65
80726;BME280;70113;59.928;10.878;2023-06-24T01:54:36;99470.06;;;17.78;56.27
80726;BME280;70113;59.928;10.878;2023-06-24T01:57:05;99474.09;;;17.69;56.85
80726;BME280;70113;59.928;10.878;2023-06-24T01:59:33;99471.19;;;17.58;57.16
80726;BME280;70113;59.928;10.878;2023-06-24T02:02:00;99471.78;;;17.63;57.62
80726;BME280;70113;59.928;10.878;2023-06-24T02:04:27;99463.00;;;17.45;57.05
80726;BME280;70113;59.928;10.878;2023-06-24T02:06:59;99467.81;;;17.54;56.93
80726;BME280;70113;59.928;10.878;2023-06-24T02:09:27;99482.31;;;17.50;56.14
80726;BME280;70113;59.928;10.878;2023-06-24T02:11:56;99484.19;;;17.48;56.36
80726;BME280;70113;59.928;10.878;2023-06-24T02:14:23;99484.97;;;17.50;56.25
80726;BME280;70113;59.928;10.878;2023-06-24T02:16:50;99475.50;;;17.45;56.81
80726;BME280;70113;59.928;10.878;2023-06-24T02:19:24;99490.25;;;17.52;56.16
80726;BME280;70113;59.928;10.878;2023-06-24T02:21:51;99484.38;;;17.45;55.91
80726;BME280;70113;59.928;10.878;2023-06-24T02:24:19;99488.69;;;17.48;55.47
80726;BME280;70113;59.928;10.878;2023-06-24T02:26:45;99478.16;;;17.45;55.41
80726;BME280;70113;59.928;10.878;2023-06-24T02:29:12;99495.75;;;17.49;55.47
80726;BME280;70113;59.928;10.878;2023-06-24T02:31:38;99488.69;;;17.48;55.50
80726;BME280;70113;59.928;10.878;2023-06-24T02:34:04;99492.84;;;17.38;55.45
80726;BME280;70113;59.928;10.878;2023-06-24T02:36:30;99481.47;;;17.34;55.00
80726;BME280;70113;59.928;10.878;2023-06-24T02:38:56;99500.94;;;17.52;54.71
80726;BME280;70113;59.928;10.878;2023-06-24T02:41:21;99484.03;;;17.36;55.13
80726;BME280;70113;59.928;10.878;2023-06-24T02:43:47;99504.72;;;17.48;54.84
80726;BME280;70113;59.928;10.878;2023-06-24T02:46:15;99513.00;;;17.43;54.73
80726;BME280;70113;59.928;10.878;2023-06-24T02:48:41;99511.44;;;17.39;54.75
80726;BME280;70113;59.928;10.878;2023-06-24T02:51:08;99501.94;;;17.34;54.63
80726;BME280;70113;59.928;10.878;2023-06-24T02:53:37;99506.59;;;17.30;55.06
80726;BME280;70113;59.928;10.878;2023-06-24T02:56:04;99513.06;;;17.42;54.97
80726;BME280;70113;59.928;10.878;2023-06-24T02:58:31;99503.94;;;17.46;54.21
80726;BME280;70113;59.928;10.878;2023-06-24T03:01:01;99516.44;;;17.45;54.00
80726;BME280;70113;59.928;10.878;2023-06-24T03:03:29;99498.50;;;17.31;54.44
80726;BME280;70113;59.928;10.878;2023-06-24T03:05:55;99508.69;;;17.41;53.89
80726;BME280;70113;59.928;10.878;2023-06-24T03:08:24;99511.41;;;17.23;54.48
80726;BME280;70113;59.928;10.878;2023-06-24T03:13:15;99481.59;;;17.15;53.67
80726;BME280;70113;59.928;10.878;2023-06-24T03:15:41;99507.72;;;17.26;53.78
80726;BME280;70113;59.928;10.878;2023-06-24T03:18:07;99507.03;;;17.22;53.65
80726;BME280;70113;59.928;10.878;2023-06-24T03:20:32;99515.81;;;17.24;53.86
80726;BME280;70113;59.928;10.878;2023-06-24T03:23:05;99513.44;;;17.02;54.18
80726;BME280;70113;59.928;10.878;2023-06-24T03:25:32;99504.09;;;17.11;54.11
80726;BME280;70113;59.928;10.878;2023-06-24T03:27:57;99510.47;;;17.24;53.72
80726;BME280;70113;59.928;10.878;2023-06-24T03:30:24;99508.06;;;17.20;53.60
80726;BME280;70113;59.928;10.878;2023-06-24T03:32:50;99525.47;;;17.27;53.27
80726;BME280;70113;59.928;10.878;2023-06-24T03:35:16;99525.47;;;17.27;53.36
80726;BME280;70113;59.928;10.878;2023-06-24T03:37:41;99534.28;;;17.29;53.27
80726;BME280;70113;59.928;10.878;2023-06-24T03:40:08;99526.50;;;17.24;53.55
80726;BME280;70113;59.928;10.878;2023-06-24T03:42:34;99532.38;;;17.31;53.38
80726;BME280;70113;59.928;10.878;2023-06-24T03:44:59;99526.09;;;17.32;53.54
80726;BME280;70113;59.928;10.878;2023-06-24T03:47:25;99527.59;;;17.04;53.58
80726;BME280;70113;59.928;10.878;2023-06-24T03:49:51;99535.19;;;17.12;53.36
80726;BME280;70113;59.928;10.878;2023-06-24T03:52:17;99545.38;;;17.21;53.34
80726;BME280;70113;59.928;10.878;2023-06-24T03:54:43;99539.31;;;17.18;54.02
80726;BME280;70113;59.928;10.878;2023-06-24T03:57:08;99531.25;;;17.19;53.08
80726;BME280;70113;59.928;10.878;2023-06-24T03:59:34;99538.53;;;17.16;53.47
80726;BME280;70113;59.928;10.878;2023-06-24T04:01:59;99540.88;;;17.22;53.16
80726;BME280;70113;59.928;10.878;2023-06-24T04:04:26;99547.09;;;17.22;53.17
80726;BME280;70113;59.928;10.878;2023-06-24T04:06:51;99547.09;;;17.22;53.33
80726;BME280;70113;59.928;10.878;2023-06-24T04:09:17;99549.50;;;17.11;53.59
80726;BME280;70113;59.928;10.878;2023-06-24T04:11:43;99554.03;;;17.09;53.15
80726;BME280;70113;59.928;10.878;2023-06-24T04:14:08;99544.22;;;17.09;54.05
80726;BME280;70113;59.928;10.878;2023-06-24T04:16:35;99551.13;;;17.14;52.79
80726;BME280;70113;59.928;10.878;2023-06-24T04:19:01;99558.91;;;17.01;53.03
80726;BME280;70113;59.928;10.878;2023-06-24T04:21:27;99561.91;;;16.95;52.69
80726;BME280;70113;59.928;10.878;2023-06-24T04:23:53;99563.41;;;17.00;53.12
80726;BME280;70113;59.928;10.878;2023-06-24T04:26:18;99568.56;;;17.03;52.95
80726;BME280;70113;59.928;10.878;2023-06-24T04:28:44;99569.44;;;17.04;53.25
80726;BME280;70113;59.928;10.878;2023-06-24T04:31:10;99568.56;;;17.03;53.02
80726;BME280;70113;59.928;10.878;2023-06-24T04:33:35;99574.25;;;16.97;53.50
80726;BME280;70113;59.928;10.878;2023-06-24T04:36:01;99574.50;;;16.93;53.31
80726;BME280;70113;59.928;10.878;2023-06-24T04:38:27;99572.91;;;16.89;53.32
80726;BME280;70113;59.928;10.878;2023-06-24T04:40:52;99580.59;;;16.95;53.26
80726;BME280;70113;59.928;10.878;2023-06-24T04:43:18;99596.31;;;17.01;52.95
80726;BME280;70113;59.928;10.878;2023-06-24T04:45:44;99579.59;;;16.97;53.24
80726;BME280;70113;59.928;10.878;2023-06-24T04:48:10;99582.34;;;16.96;53.47
80726;BME280;70113;59.928;10.878;2023-06-24T04:50:35;99587.75;;;16.94;53.02
80726;BME280;70113;59.928;10.878;2023-06-24T04:53:01;99578.41;;;16.85;53.14
80726;BME280;70113;59.928;10.878;2023-06-24T04:55:27;99586.91;;;16.94;53.46
80726;BME280;70113;59.928;10.878;2023-06-24T04:57:55;99590.97;;;17.01;53.64
80726;BME280;70113;59.928;10.878;2023-06-24T05:00:21;99580.69;;;16.93;52.71
80726;BME280;70113;59.928;10.878;2023-06-24T05:02:50;99587.84;;;16.93;53.13
80726;BME280;70113;59.928;10.878;2023-06-24T05:05:15;99600.41;;;17.08;53.14
80726;BME280;70113;59.928;10.878;2023-06-24T05:07:41;99596.31;;;17.01;54.26
80726;BME280;70113;59.928;10.878;2023-06-24T05:10:07;99594.44;;;17.03;52.75
80726;BME280;70113;59.928;10.878;2023-06-24T05:12:33;99610.13;;;17.09;52.58
80726;BME280;70113;59.928;10.878;2023-06-24T05:14:58;99600.72;;;17.02;52.95
80726;BME280;70113;59.928;10.878;2023-06-24T05:17:24;99600.09;;;16.97;53.43
80726;BME280;70113;59.928;10.878;2023-06-24T05:19:49;99607.78;;;17.03;53.37
80726;BME280;70113;59.928;10.878;2023-06-24T05:22:16;99607.47;;;17.09;53.47
80726;BME280;70113;59.928;10.878;2023-06-24T05:24:41;99602.75;;;17.14;53.57
80726;BME280;70113;59.928;10.878;2023-06-24T05:27:07;99611.63;;;17.15;52.99
80726;BME280;70113;59.928;10.878;2023-06-24T05:29:34;99610.34;;;17.22;52.80
80726;BME280;70113;59.928;10.878;2023-06-24T05:32:00;99609.25;;;17.26;52.67
80726;BME280;70113;59.928;10.878;2023-06-24T05:34:27;99594.19;;;17.07;52.97
80726;BME280;70113;59.928;10.878;2023-06-24T05:36:53;99613.81;;;17.24;53.25
80726;BME280;70113;59.928;10.878;2023-06-24T05:39:20;99616.84;;;17.34;52.55
80726;BME280;70113;59.928;10.878;2023-06-24T05:41:46;99603.91;;;17.26;52.97
80726;BME280;70113;59.928;10.878;2023-06-24T05:44:13;99618.16;;;17.42;52.91
80726;BME280;70113;59.928;10.878;2023-06-24T05:46:39;99612.66;;;17.45;53.36
80726;BME280;70113;59.928;10.878;2023-06-24T05:49:05;99620.59;;;17.47;52.59
80726;BME280;70113;59.928;10.878;2023-06-24T05:51:31;99615.72;;;17.55;52.65
80726;BME280;70113;59.928;10.878;2023-06-24T05:53:56;99615.25;;;17.47;52.28
80726;BME280;70113;59.928;10.878;2023-06-24T05:56:23;99620.44;;;17.50;53.03
80726;BME280;70113;59.928;10.878;2023-06-24T05:58:49;99620.59;;;17.47;52.64
80726;BME280;70113;59.928;10.878;2023-06-24T06:01:15;99595.31;;;17.37;53.46
80726;BME280;70113;59.928;10.878;2023-06-24T06:03:40;99615.59;;;17.41;52.76
80726;BME280;70113;59.928;10.878;2023-06-24T06:06:06;99617.94;;;17.47;52.54
80726;BME280;70113;59.928;10.878;2023-06-24T06:08:33;99626.81;;;17.47;53.60
80726;BME280;70113;59.928;10.878;2023-06-24T06:11:00;99614.63;;;17.42;53.23
80726;BME280;70113;59.928;10.878;2023-06-24T06:13:28;99623.66;;;17.39;53.10
80726;BME280;70113;59.928;10.878;2023-06-24T06:15:54;99615.34;;;17.28;53.44
80726;BME280;70113;59.928;10.878;2023-06-24T06:18:20;99617.16;;;17.27;53.41
80726;BME280;70113;59.928;10.878;2023-06-24T06:20:46;99607.59;;;17.23;53.73
80726;BME280;70113;59.928;10.878;2023-06-24T06:23:11;99615.28;;;17.29;53.92
80726;BME280;70113;59.928;10.878;2023-06-24T06:25:37;99605.41;;;17.14;54.54
80726;BME280;70113;59.928;10.878;2023-06-24T06:28:03;99619.78;;;17.29;53.95
80726;BME280;70113;59.928;10.878;2023-06-24T06:30:29;99617.63;;;17.36;53.64
80726;BME280;70113;59.928;10.878;2023-06-24T06:32:55;99632.63;;;17.56;53.65
80726;BME280;70113;59.928;10.878;2023-06-24T06:35:21;99610.06;;;17.44;53.24
80726;BME280;70113;59.928;10.878;2023-06-24T06:37:46;99624.94;;;17.49;53.92
80726;BME280;70113;59.928;10.878;2023-06-24T06:40:18;99602.28;;;17.39;53.97
80726;BME280;70113;59.928;10.878;2023-06-24T06:42:44;99622.84;;;17.54;53.51
80726;BME280;70113;59.928;10.878;2023-06-24T06:45:10;99615.44;;;17.60;53.90
80726;BME280;70113;59.928;10.878;2023-06-24T06:47:36;99615.88;;;17.52;54.12
80726;BME280;70113;59.928;10.878;2023-06-24T06:50:02;99619.94;;;17.59;54.11
80726;BME280;70113;59.928;10.878;2023-06-24T06:52:27;99619.09;;;17.74;53.55
80726;BME280;70113;59.928;10.878;2023-06-24T06:54:54;99619.59;;;17.65;53.49
80726;BME280;70113;59.928;10.878;2023-06-24T06:57:20;99624.44;;;17.59;54.21
80726;BME280;70113;59.928;10.878;2023-06-24T06:59:46;99627.66;;;17.48;54.66
80726;BME280;70113;59.928;10.878;2023-06-24T07:02:11;99630.91;;;17.70;54.47
80726;BME280;70113;59.928;10.878;2023-06-24T07:04:37;99626.31;;;17.72;54.16
80726;BME280;70113;59.928;10.878;2023-06-24T07:07:03;99631.91;;;17.85;54.43
80726;BME280;70113;59.928;10.878;2023-06-24T07:09:29;99628.69;;;17.79;53.55
80726;BME280;70113;59.928;10.878;2023-06-24T07:11:54;99642.00;;;17.80;53.60
80726;BME280;70113;59.928;10.878;2023-06-24T07:14:20;99632.09;;;17.82;54.49
80726;BME280;70113;59.928;10.878;2023-06-24T07:16:46;99643.47;;;17.86;53.69
80726;BME280;70113;59.928;10.878;2023-06-24T07:19:12;99639.84;;;17.87;53.94
80726;BME280;70113;59.928;10.878;2023-06-24T07:21:38;99634.59;;;17.85;53.80
80726;BME280;70113;59.928;10.878;2023-06-24T07:24:04;99636.41;;;17.85;53.75
80726;BME280;70113;59.928;10.878;2023-06-24T07:26:29;99643.94;;;17.94;53.73
80726;BME280;70113;59.928;10.878;2023-06-24T07:28:57;99629.25;;;18.01;53.32
80726;BME280;70113;59.928;10.878;2023-06-24T07:31:26;99629.69;;;18.09;53.65
80726;BME280;70113;59.928;10.878;2023-06-24T07:33:52;99637.97;;;18.20;53.23
80726;BME280;70113;59.928;10.878;2023-06-24T07:36:17;99640.84;;;18.17;53.85
80726;BME280;70113;59.928;10.878;2023-06-24T07:38:43;99624.41;;;18.08;53.80
80726;BME280;70113;59.928;10.878;2023-06-24T07:41:08;99613.63;;;18.09;52.99
80726;BME280;70113;59.928;10.878;2023-06-24T07:43:34;99625.28;;;18.24;53.32
80726;BME280;70113;59.928;10.878;2023-06-24T07:46:00;99630.44;;;18.11;54.16
80726;BME280;70113;59.928;10.878;2023-06-24T07:48:26;99628.13;;;18.21;53.54
80726;BME280;70113;59.928;10.878;2023-06-24T07:50:51;99629.78;;;18.24;54.27
80726;BME280;70113;59.928;10.878;2023-06-24T07:53:17;99616.47;;;18.22;54.16
80726;BME280;70113;59.928;10.878;2023-06-24T07:55:43;99616.81;;;18.32;53.76
80726;BME280;70113;59.928;10.878;2023-06-24T07:58:08;99624.59;;;18.20;54.20
80726;BME280;70113;59.928;10.878;2023-06-24T08:00:34;99632.44;;;18.24;54.04
80726;BME280;70113;59.928;10.878;2023-06-24T08:03:00;99629.94;;;18.20;53.91
80726;BME280;70113;59.928;10.878;2023-06-24T08:05:26;99625.88;;;18.29;53.60
80726;BME280;70113;59.928;10.878;2023-06-24T08:07:52;99620.00;;;18.22;54.38
80726;BME280;70113;59.928;10.878;2023-06-24T08:10:18;99628.88;;;18.23;53.42
80726;BME280;70113;59.928;10.878;2023-06-24T08:12:46;99615.34;;;18.26;54.77
80726;BME280;70113;59.928;10.878;2023-06-24T08:15:12;99617.22;;;18.40;54.27
80726;BME280;70113;59.928;10.878;2023-06-24T08:20:04;99611.75;;;18.57;54.38
80726;BME280;70113;59.928;10.878;2023-06-24T08:22:30;99618.44;;;18.50;54.15
80726;BME280;70113;59.928;10.878;2023-06-24T08:24:56;99608.78;;;18.48;53.45
80726;BME280;70113;59.928;10.878;2023-06-24T08:27:21;99617.31;;;18.54;53.83
80726;BME280;70113;59.928;10.878;2023-06-24T08:29:49;99622.91;;;18.50;53.67
80726;BME280;70113;59.928;10.878;2023-06-24T08:32:15;99622.84;;;18.51;54.39
80726;BME280;70113;59.928;10.878;2023-06-24T08:34:42;99607.94;;;18.77;53.17
80726;BME280;70113;59.928;10.878;2023-06-24T08:37:08;99613.69;;;18.85;52.47
80726;BME280;70113;59.928;10.878;2023-06-24T08:39:33;99608.72;;;18.63;53.09
80726;BME280;70113;59.928;10.878;2023-06-24T08:41:59;99602.03;;;18.40;53.52
80726;BME280;70113;59.928;10.878;2023-06-24T08:44:25;99614.69;;;18.53;53.61
80726;BME280;70113;59.928;10.878;2023-06-24T08:46:51;99615.22;;;18.59;53.69
80726;BME280;70113;59.928;10.878;2023-06-24T08:51:49;99619.22;;;18.82;53.00
80726;BME280;70113;59.928;10.878;2023-06-24T08:54:19;99623.91;;;18.79;53.17
80726;BME280;70113;59.928;10.878;2023-06-24T08:56:45;99624.03;;;18.92;52.82
80726;BME280;70113;59.928;10.878;2023-06-24T08:59:11;99616.47;;;18.84;52.46
80726;BME280;70113;59.928;10.878;2023-06-24T09:01:37;99612.75;;;18.86;52.91
80726;BME280;70113;59.928;10.878;2023-06-24T09:04:03;99613.88;;;18.82;52.28
80726;BME280;70113;59.928;10.878;2023-06-24T09:06:31;99614.78;;;18.97;53.43
80726;BME280;70113;59.928;10.878;2023-06-24T09:08:57;99623.53;;;19.01;53.27
80726;BME280;70113;59.928;10.878;2023-06-24T09:11:26;99607.44;;;19.01;53.29
80726;BME280;70113;59.928;10.878;2023-06-24T09:13:59;99614.63;;;19.15;51.75
80726;BME280;70113;59.928;10.878;2023-06-24T09:16:26;99611.25;;;18.97;52.35
80726;BME280;70113;59.928;10.878;2023-06-24T09:18:53;99607.16;;;19.05;53.26
80726;BME280;70113;59.928;10.878;2023-06-24T09:21:26;99606.00;;;19.09;52.96
80726;BME280;70113;59.928;10.878;2023-06-24T09:23:56;99604.22;;;19.10;52.77
80726;BME280;70113;59.928;10.878;2023-06-24T09:26:23;99589.63;;;19.00;53.04
80726;BME280;70113;59.928;10.878;2023-06-24T09:28:49;99607.72;;;18.96;52.58
80726;BME280;70113;59.928;10.878;2023-06-24T09:31:15;99606.28;;;19.05;53.29
80726;BME280;70113;59.928;10.878;2023-06-24T09:33:41;99614.44;;;19.18;53.36
80726;BME280;70113;59.928;10.878;2023-06-24T09:36:11;99604.78;;;19.29;54.09
80726;BME280;70113;59.928;10.878;2023-06-24T09:38:38;99610.72;;;19.34;52.97
80726;BME280;70113;59.928;10.878;2023-06-24T09:41:06;99605.06;;;19.39;52.68
80726;BME280;70113;59.928;10.878;2023-06-24T09:43:38;99609.22;;;19.30;52.58
80726;BME280;70113;59.928;10.878;2023-06-24T09:46:06;99601.53;;;19.39;53.44
80726;BME280;70113;59.928;10.878;2023-06-24T09:48:35;99607.94;;;19.50;53.00
80726;BME280;70113;59.928;10.878;2023-06-24T09:51:03;99610.06;;;19.59;53.67
80726;BME280;70113;59.928;10.878;2023-06-24T09:53:34;99602.00;;;19.59;52.80
80726;BME280;70113;59.928;10.878;2023-06-24T09:56:01;99593.97;;;19.59;52.40
80726;BME280;70113;59.928;10.878;2023-06-24T09:58:32;99594.06;;;19.58;52.17
80726;BME280;70113;59.928;10.878;2023-06-24T10:01:02;99590.22;;;19.62;52.37
80726;BME280;70113;59.928;10.878;2023-06-24T10:03:30;99594.31;;;19.69;53.25
80726;BME280;70113;59.928;10.878;2023-06-24T10:05:57;99595.34;;;19.67;52.36
80726;BME280;70113;59.928;10.878;2023-06-24T10:08:24;99580.91;;;19.69;51.87
80726;BME280;70113;59.928;10.878;2023-06-24T10:10:49;99586.16;;;19.71;52.15
80726;BME280;70113;59.928;10.878;2023-06-24T10:13:15;99590.72;;;19.69;51.95
80726;BME280;70113;59.928;10.878;2023-06-24T10:15:41;99584.22;;;19.73;52.20
80726;BME280;70113;59.928;10.878;2023-06-24T10:18:45;99589.59;;;19.87;51.22
80726;BME280;70113;59.928;10.878;2023-06-24T10:21:12;99588.13;;;19.96;51.86
80726;BME280;70113;59.928;10.878;2023-06-24T10:26:11;99584.69;;;19.94;51.69
80726;BME280;70113;59.928;10.878;2023-06-24T10:36:56;99586.63;;;20.19;50.74
80726;BME280;70113;59.928;10.878;2023-06-24T10:44:58;99568.75;;;20.32;50.46
80726;BME280;70113;59.928;10.878;2023-06-24T10:47:25;99567.69;;;20.35;50.11
80726;BME280;70113;59.928;10.878;2023-06-24T10:49:51;99565.66;;;20.38;49.40
80726;BME280;70113;59.928;10.878;2023-06-24T10:52:21;99549.13;;;20.44;51.20
80726;BME280;70113;59.928;10.878;2023-06-24T10:54:48;99569.59;;;20.60;49.07
80726;BME280;70113;59.928;10.878;2023-06-24T10:57:14;99570.69;;;20.70;50.90
80726;BME280;70113;59.928;10.878;2023-06-24T10:59:47;99572.66;;;20.81;49.26
80726;BME280;70113;59.928;10.878;2023-06-24T11:02:17;99584.53;;;21.04;48.53
80726;BME280;70113;59.928;10.878;2023-06-24T11:05:04;99573.66;;;20.92;48.53
80726;BME280;70113;59.928;10.878;2023-06-24T11:07:32;99575.25;;;20.82;48.58
80726;BME280;70113;59.928;10.878;2023-06-24T11:10:13;99573.66;;;20.92;49.29
80726;BME280;70113;59.928;10.878;2023-06-24T11:12:39;99566.00;;;20.86;48.48
80726;BME280;70113;59.928;10.878;2023-06-24T11:15:07;99557.94;;;20.86;48.20
80726;BME280;70113;59.928;10.878;2023-06-24T11:17:34;99527.19;;;20.78;49.23
80726;BME280;70113;59.928;10.878;2023-06-24T11:20:01;99541.31;;;21.07;48.62
80726;BME280;70113;59.928;10.878;2023-06-24T11:22:27;99558.72;;;21.27;48.83
80726;BME280;70113;59.928;10.878;2023-06-24T11:24:54;99555.69;;;21.31;47.83
80726;BME280;70113;59.928;10.878;2023-06-24T11:27:26;99553.66;;;21.22;47.67
80726;BME280;70113;59.928;10.878;2023-06-24T11:29:53;99558.81;;;21.25;47.32
80726;BME280;70113;59.928;10.878;2023-06-24T11:32:20;99563.03;;;21.42;47.54
80726;BME280;70113;59.928;10.878;2023-06-24T11:34:46;99566.38;;;21.46;47.46
80726;BME280;70113;59.928;10.878;2023-06-24T11:37:14;99551.53;;;21.40;47.79
80726;BME280;70113;59.928;10.878;2023-06-24T11:39:40;99554.22;;;21.40;48.08
80726;BME280;70113;59.928;10.878;2023-06-24T11:42:07;99560.75;;;21.61;48.43
80726;BME280;70113;59.928;10.878;2023-06-24T11:44:34;99559.22;;;21.70;48.04
80726;BME280;70113;59.928;10.878;2023-06-24T11:47:11;99545.31;;;21.76;48.53
80726;BME280;70113;59.928;10.878;2023-06-24T11:50:04;99554.00;;;21.93;48.31
80726;BME280;70113;59.928;10.878;2023-06-24T11:52:43;99554.81;;;22.06;48.57
80726;BME280;70113;59.928;10.878;2023-06-24T12:00:21;99554.34;;;22.25;48.21
80726;BME280;70113;59.928;10.878;2023-06-24T12:03:00;99551.59;;;22.38;47.94
80726;BME280;70113;59.928;10.878;2023-06-24T12:05:35;99553.91;;;22.42;47.75
80726;BME280;70113;59.928;10.878;2023-06-24T12:08:04;99533.88;;;22.46;47.78
80726;BME280;70113;59.928;10.878;2023-06-24T12:10:32;99554.47;;;22.59;47.27
80726;BME280;70113;59.928;10.878;2023-06-24T12:13:02;99548.81;;;22.50;47.36
80726;BME280;70113;59.928;10.878;2023-06-24T12:15:29;99549.66;;;22.51;46.92
80726;BME280;70113;59.928;10.878;2023-06-24T12:17:55;99553.59;;;22.47;47.74
80726;BME280;70113;59.928;10.878;2023-06-24T12:20:21;99557.66;;;22.52;47.60
80726;BME280;70113;59.928;10.878;2023-06-24T12:22:48;99547.50;;;22.56;47.66
80726;BME280;70113;59.928;10.878;2023-06-24T12:25:15;99532.56;;;22.63;46.91
80726;BME280;70113;59.928;10.878;2023-06-24T12:27:42;99544.47;;;22.72;45.40
80726;BME280;70113;59.928;10.878;2023-06-24T12:30:09;99536.38;;;22.61;44.51
80726;BME280;70113;59.928;10.878;2023-06-24T12:32:35;99537.03;;;22.75;45.18
80726;BME280;70113;59.928;10.878;2023-06-24T12:35:01;99529.78;;;22.76;44.39
80726;BME280;70113;59.928;10.878;2023-06-24T12:37:31;99546.78;;;23.01;43.85
80726;BME280;70113;59.928;10.878;2023-06-24T12:40:02;99552.69;;;23.06;43.95
80726;BME280;70113;59.928;10.878;2023-06-24T12:42:28;99552.56;;;23.07;43.76
80726;BME280;70113;59.928;10.878;2023-06-24T12:44:54;99553.09;;;23.24;43.30
80726;BME280;70113;59.928;10.878;2023-06-24T12:47:20;99525.38;;;23.33;44.59
80726;BME280;70113;59.928;10.878;2023-06-24T12:49:46;99532.47;;;23.34;42.73
80726;BME280;70113;59.928;10.878;2023-06-24T12:52:14;99537.88;;;23.45;42.60
80726;BME280;70113;59.928;10.878;2023-06-24T12:54:41;99541.19;;;23.60;42.16
80726;BME280;70113;59.928;10.878;2023-06-24T12:57:06;99537.03;;;23.56;41.44
80726;BME280;70113;59.928;10.878;2023-06-24T12:59:32;99546.69;;;23.58;41.09
80726;BME280;70113;59.928;10.878;2023-06-24T13:01:58;99545.47;;;23.62;40.76
80726;BME280;70113;59.928;10.878;2023-06-24T13:04:24;99522.19;;;23.73;40.56
80726;BME280;70113;59.928;10.878;2023-06-24T13:06:51;99534.53;;;23.98;41.28
80726;BME280;70113;59.928;10.878;2023-06-24T13:09:17;99532.69;;;23.98;41.53
80726;BME280;70113;59.928;10.878;2023-06-24T13:11:42;99534.47;;;24.20;41.09
80726;BME280;70113;59.928;10.878;2023-06-24T13:14:08;99542.75;;;24.40;39.56
80726;BME280;70113;59.928;10.878;2023-06-24T13:16:38;99540.72;;;24.21;39.01
80726;BME280;70113;59.928;10.878;2023-06-24T13:19:04;99538.50;;;24.26;38.97
80726;BME280;70113;59.928;10.878;2023-06-24T13:21:29;99528.03;;;24.32;39.73
80726;BME280;70113;59.928;10.878;2023-06-24T13:23:58;99535.28;;;24.43;39.74
80726;BME280;70113;59.928;10.878;2023-06-24T13:26:23;99527.38;;;24.51;39.29
80726;BME280;70113;59.928;10.878;2023-06-24T13:28:50;99517.94;;;24.46;39.44
80726;BME280;70113;59.928;10.878;2023-06-24T13:31:15;99516.03;;;24.25;39.49
80726;BME280;70113;59.928;10.878;2023-06-24T13:33:41;99528.63;;;24.36;39.57